Tampa, Florida
Traffic Map
Current Weather Conditions
Tampa, Florida
Clear
Clear
27°
Feels Like: 28°
Wind Chill: 27° Ceiling: Unl
Heat Index: 28° Visibility: 10mi
Dew Point: 20° Wind: 8mph
Humidity: 67% Direction: 70° (ENE)
Pressure: 30.22in Gusts: 0mph
Raw Report DataKTPA 231253Z 07007KT 10SM CLR 27/20 A3022 RMK AO2 SLP232 T02670200
Traffic Incident Summary
Active as of:
Severity:
Category:
InformationThere was an issue retrieving the traffic information for this location. Please try a different location or try again shortly.
Advertisements
Track Severe Weather on mobile